Port Saint Lucie, Florida
Current Conditions -  °F | °C
As of 11:47 AM on Thursday 30 Oct 2014 (Local Time) from KSUA Reporting Station
Few Clouds Few Clouds  
Wind Chill: 81°   Ceiling: Unl
Heat Index: 81°   Visibility: 7mi
Dew Point: 59°   Wind: 0mph
Humidity: 48%   Direction: NA
Pressure: 29.98"   Gusts: NA
Location:  27.32°N, 80.31°W
Report Text: KSUA 301547Z 00000KT 7SM FEW040 27/15 A2998
Loading
Personal Weather Stations






























Interactive Weather Map
Tropical Storm Tracking
New forecast layout! Learn more

10-Day Weather Forecast

Advertisements
Track Severe Weather on mobile